Time,TemperatureF,DewpointF,PressureIn,WindDirection,WindDirectionDegrees,WindSpeedMPH,WindSpeedGustMPH,Humidity,HourlyPrecipIn,Conditions,Clouds,dailyrainin,SoftwareType,DateUTC
2013-04-16 00:00:00,60.4,45.6,29.80,ENE,65,2.7,2.7,58,0.00,,,0.04,VWS V14.00,2013-04-16 04:00:00,
2013-04-16 00:05:00,60.4,46.1,29.80,NE,50,2.7,2.7,59,0.00,,,0.00,VWS V14.00,2013-04-16 04:05:00,
2013-04-16 00:10:00,60.4,46.1,29.80,NE,50,0.0,0.0,59,0.00,,,0.00,VWS V14.00,2013-04-16 04:10:00,
2013-04-16 00:15:00,60.3,46.3,29.80,East,97,2.2,2.2,60,0.00,,,0.00,VWS V14.00,2013-04-16 04:15:00,
2013-04-16 00:20:00,60.3,46.8,29.80,NNE,23,2.7,4.9,61,0.00,,,0.00,VWS V14.00,2013-04-16 04:20:00,
2013-04-16 00:25:00,60.3,46.8,29.80,ENE,66,0.0,2.2,61,0.00,,,0.00,VWS V14.00,2013-04-16 04:25:00,
2013-04-16 00:30:00,60.1,46.6,29.80,ENE,66,0.0,0.0,61,0.00,,,0.00,VWS V14.00,2013-04-16 04:30:00,
2013-04-16 00:35:00,60.1,47.0,29.80,NE,56,0.0,0.0,62,0.00,,,0.00,VWS V14.00,2013-04-16 04:35:00,
2013-04-16 00:40:00,59.9,46.9,29.80,NE,56,0.0,0.0,62,0.00,,,0.00,VWS V14.00,2013-04-16 04:40:00,
2013-04-16 00:45:00,59.9,46.9,29.80,NE,52,0.0,0.0,62,0.00,,,0.00,VWS V14.00,2013-04-16 04:45:00,
2013-04-16 00:50:00,59.7,46.7,29.80,NE,52,0.0,0.0,62,0.00,,,0.00,VWS V14.00,2013-04-16 04:50:00,
2013-04-16 00:55:00,59.5,47.0,29.80,NE,48,0.0,0.0,63,0.00,,,0.00,VWS V14.00,2013-04-16 04:55:00,
2013-04-16 01:00:00,59.4,46.8,29.80,NE,48,0.0,0.0,63,0.00,,,0.00,VWS V14.00,2013-04-16 05:00:00,
2013-04-16 01:05:00,59.4,46.8,29.80,NE,48,0.0,0.0,63,0.00,,,0.00,VWS V14.00,2013-04-16 05:05:00,
2013-04-16 01:10:00,59.2,47.0,29.80,NE,48,0.0,0.0,64,0.00,,,0.00,VWS V14.00,2013-04-16 05:10:00,
2013-04-16 01:15:00,59.0,46.8,29.80,NE,55,0.0,2.2,64,0.00,,,0.00,VWS V14.00,2013-04-16 05:15:00,
2013-04-16 01:20:00,58.8,47.1,29.80,NE,53,0.0,0.0,65,0.00,,,0.00,VWS V14.00,2013-04-16 05:20:00,
2013-04-16 01:25:00,58.6,46.9,29.80,NE,47,0.0,0.0,65,0.00,,,0.00,VWS V14.00,2013-04-16 05:25:00,
2013-04-16 01:30:00,58.5,46.8,29.80,NE,47,0.0,0.0,65,0.00,,,0.00,VWS V14.00,2013-04-16 05:30:00,
2013-04-16 01:35:00,58.5,47.2,29.80,NE,47,0.0,0.0,66,0.00,,,0.00,VWS V14.00,2013-04-16 05:35:00,
2013-04-16 01:40:00,58.3,47.4,29.80,NE,47,0.0,0.0,67,0.00,,,0.00,VWS V14.00,2013-04-16 05:40:00,
2013-04-16 01:45:00,58.3,47.4,29.80,NE,47,0.0,0.0,67,0.00,,,0.00,VWS V14.00,2013-04-16 05:45:00,
2013-04-16 01:50:00,58.1,47.6,29.80,NE,47,0.0,0.0,68,0.00,,,0.00,VWS V14.00,2013-04-16 05:50:00,
2013-04-16 01:55:00,58.1,47.6,29.80,NE,47,0.0,0.0,68,0.00,,,0.00,VWS V14.00,2013-04-16 05:55:00,
2013-04-16 02:00:00,58.1,48.0,29.80,NE,47,0.0,0.0,69,0.00,,,0.00,VWS V14.00,2013-04-16 06:00:00,
2013-04-16 02:05:00,58.1,48.0,29.80,NE,47,0.0,0.0,69,0.00,,,0.00,VWS V14.00,2013-04-16 06:05:00,
2013-04-16 02:10:00,58.1,48.4,29.80,NE,47,0.0,0.0,70,0.00,,,0.00,VWS V14.00,2013-04-16 06:10:00,
2013-04-16 02:15:00,58.1,48.8,29.80,NE,47,0.0,0.0,71,0.00,,,0.00,VWS V14.00,2013-04-16 06:15:00,
2013-04-16 02:20:00,57.9,48.6,29.80,NE,47,0.0,0.0,71,0.00,,,0.00,VWS V14.00,2013-04-16 06:20:00,
2013-04-16 02:25:00,58.1,49.5,29.80,NE,47,0.0,0.0,73,0.00,,,0.00,VWS V14.00,2013-04-16 06:25:00,
2013-04-16 02:30:00,58.1,49.5,29.80,NE,47,0.0,0.0,73,0.00,,,0.00,VWS V14.00,2013-04-16 06:30:00,
2013-04-16 02:35:00,58.1,49.5,29.80,NE,47,0.0,0.0,73,0.00,,,0.00,VWS V14.00,2013-04-16 06:35:00,
2013-04-16 02:40:00,58.3,49.7,29.80,NE,47,0.0,0.0,73,0.00,,,0.00,VWS V14.00,2013-04-16 06:40:00,
2013-04-16 02:45:00,58.3,50.0,29.80,NE,47,0.0,0.0,74,0.00,,,0.00,VWS V14.00,2013-04-16 06:45:00,
2013-04-16 02:50:00,58.5,50.2,29.80,NE,47,0.0,0.0,74,0.00,,,0.00,VWS V14.00,2013-04-16 06:50:00,
2013-04-16 02:55:00,58.5,50.2,29.80,ESE,107,0.0,0.0,74,0.00,,,0.00,VWS V14.00,2013-04-16 06:55:00,
2013-04-16 03:00:00,58.6,50.4,29.80,ESE,107,0.0,0.0,74,0.00,,,0.00,VWS V14.00,2013-04-16 07:00:00,
2013-04-16 03:05:00,58.5,50.2,29.80,ESE,107,0.0,0.0,74,0.00,,,0.00,VWS V14.00,2013-04-16 07:05:00,
2013-04-16 03:10:00,58.5,50.2,29.80,ESE,107,0.0,0.0,74,0.00,,,0.00,VWS V14.00,2013-04-16 07:10:00,
2013-04-16 03:15:00,58.5,50.2,29.80,ESE,107,0.0,0.0,74,0.00,,,0.00,VWS V14.00,2013-04-16 07:15:00,
2013-04-16 03:20:00,58.3,50.0,29.80,ESE,107,0.0,0.0,74,0.00,,,0.00,VWS V14.00,2013-04-16 07:20:00,
2013-04-16 03:25:00,58.1,49.9,29.80,ESE,107,0.0,0.0,74,0.00,,,0.00,VWS V14.00,2013-04-16 07:25:00,
2013-04-16 03:30:00,58.1,49.9,29.80,ESE,107,0.0,0.0,74,0.00,,,0.00,VWS V14.00,2013-04-16 07:30:00,
2013-04-16 03:35:00,57.9,49.7,29.80,ESE,107,0.0,0.0,74,0.00,,,0.00,VWS V14.00,2013-04-16 07:35:00,
2013-04-16 03:40:00,57.7,49.5,29.80,ESE,107,0.0,0.0,74,0.00,,,0.00,VWS V14.00,2013-04-16 07:40:00,
2013-04-16 03:45:00,57.6,49.3,29.80,ESE,107,0.0,0.0,74,0.00,,,0.00,VWS V14.00,2013-04-16 07:45:00,
2013-04-16 03:50:00,57.6,49.3,29.80,ESE,107,0.0,0.0,74,0.00,,,0.00,VWS V14.00,2013-04-16 07:50:00,
2013-04-16 03:55:00,57.4,49.2,29.80,ESE,107,0.0,0.0,74,0.00,,,0.00,VWS V14.00,2013-04-16 07:55:00,
2013-04-16 04:00:00,57.2,49.0,29.80,ESE,107,0.0,0.0,74,0.00,,,0.00,VWS V14.00,2013-04-16 08:00:00,
2013-04-16 04:05:00,57.0,48.8,29.80,ESE,107,0.0,0.0,74,0.00,,,0.00,VWS V14.00,2013-04-16 08:05:00,
2013-04-16 04:10:00,57.0,48.8,29.80,ESE,107,0.0,0.0,74,0.00,,,0.00,VWS V14.00,2013-04-16 08:10:00,
2013-04-16 04:15:00,57.0,48.8,29.80,ENE,72,0.0,0.0,74,0.00,,,0.00,VWS V14.00,2013-04-16 08:15:00,
2013-04-16 04:20:00,57.0,49.2,29.80,NE,42,0.0,0.0,75,0.00,,,0.00,VWS V14.00,2013-04-16 08:20:00,
2013-04-16 04:25:00,57.0,49.2,29.80,North,2,0.0,0.0,75,0.00,,,0.00,VWS V14.00,2013-04-16 08:25:00,
2013-04-16 04:30:00,57.0,49.2,29.80,North,2,0.0,0.0,75,0.00,,,0.00,VWS V14.00,2013-04-16 08:30:00,
2013-04-16 04:35:00,57.2,49.4,29.80,ENE,64,0.0,0.0,75,0.00,,,0.00,VWS V14.00,2013-04-16 08:35:00,
2013-04-16 04:40:00,57.2,49.7,29.80,ENE,64,0.0,0.0,76,0.00,,,0.00,VWS V14.00,2013-04-16 08:40:00,
2013-04-16 04:45:00,57.2,49.7,29.80,ENE,64,0.0,0.0,76,0.00,,,0.00,VWS V14.00,2013-04-16 08:45:00,
2013-04-16 04:50:00,57.2,49.7,29.80,ENE,74,0.0,0.0,76,0.00,,,0.00,VWS V14.00,2013-04-16 08:50:00,
2013-04-16 04:55:00,57.4,50.2,29.80,ENE,74,0.0,0.0,77,0.00,,,0.00,VWS V14.00,2013-04-16 08:55:00,
2013-04-16 05:00:00,57.4,50.2,29.80,NNW,344,0.0,0.0,77,0.00,,,0.00,VWS V14.00,2013-04-16 09:00:00,
2013-04-16 05:05:00,57.4,50.2,29.80,NE,45,0.0,0.0,77,0.00,,,0.00,VWS V14.00,2013-04-16 09:05:00,
2013-04-16 05:10:00,57.4,50.2,29.80,NE,48,0.0,0.0,77,0.00,,,0.00,VWS V14.00,2013-04-16 09:10:00,
2013-04-16 05:15:00,57.4,50.6,29.80,NNW,330,0.0,0.0,78,0.00,,,0.00,VWS V14.00,2013-04-16 09:15:00,
2013-04-16 05:20:00,57.2,50.4,29.80,NE,36,0.0,0.0,78,0.00,,,0.00,VWS V14.00,2013-04-16 09:20:00,
2013-04-16 05:25:00,57.2,50.4,29.80,NE,34,0.0,0.0,78,0.00,,,0.00,VWS V14.00,2013-04-16 09:25:00,
2013-04-16 05:30:00,57.2,50.4,29.80,NE,35,0.0,0.0,78,0.00,,,0.00,VWS V14.00,2013-04-16 09:30:00,
2013-04-16 05:35:00,57.2,50.4,29.80,ESE,103,0.0,0.0,78,0.00,,,0.00,VWS V14.00,2013-04-16 09:35:00,
2013-04-16 05:40:00,57.2,50.8,29.80,ESE,105,0.0,0.0,79,0.00,,,0.00,VWS V14.00,2013-04-16 09:40:00,
2013-04-16 05:45:00,57.2,50.8,29.80,North,353,0.0,0.0,79,0.00,,,0.00,VWS V14.00,2013-04-16 09:45:00,
2013-04-16 05:50:00,57.4,50.9,29.80,ENE,72,2.2,2.2,79,0.00,,,0.00,VWS V14.00,2013-04-16 09:50:00,
2013-04-16 05:55:00,57.4,51.3,29.80,NE,49,0.0,0.0,80,0.00,,,0.00,VWS V14.00,2013-04-16 09:55:00,
2013-04-16 06:00:00,57.6,51.5,29.80,East,92,0.0,0.0,80,0.00,,,0.00,VWS V14.00,2013-04-16 10:00:00,
2013-04-16 06:05:00,57.6,51.5,29.80,ENE,63,0.0,0.0,80,0.00,,,0.00,VWS V14.00,2013-04-16 10:05:00,
2013-04-16 06:10:00,57.6,51.8,29.80,East,81,0.0,0.0,81,0.00,,,0.00,VWS V14.00,2013-04-16 10:10:00,
2013-04-16 06:15:00,57.6,51.8,29.80,ESE,114,0.0,0.0,81,0.00,,,0.00,VWS V14.00,2013-04-16 10:15:00,
2013-04-16 06:20:00,57.6,51.8,29.80,ESE,114,0.0,0.0,81,0.00,,,0.00,VWS V14.00,2013-04-16 10:20:00,
2013-04-16 06:25:00,57.4,51.6,29.83,ENE,61,0.0,0.0,81,0.00,,,0.00,VWS V14.00,2013-04-16 10:25:00,
2013-04-16 06:30:00,57.4,51.6,29.83,ENE,61,0.0,0.0,81,0.00,,,0.00,VWS V14.00,2013-04-16 10:30:00,
2013-04-16 06:35:00,57.4,51.6,29.83,NE,51,0.0,0.0,81,0.00,,,0.00,VWS V14.00,2013-04-16 10:35:00,
2013-04-16 06:40:00,57.4,51.6,29.83,ESE,110,0.0,0.0,81,0.00,,,0.00,VWS V14.00,2013-04-16 10:40:00,
2013-04-16 06:45:00,57.4,51.6,29.83,ENE,57,0.0,0.0,81,0.00,,,0.00,VWS V14.00,2013-04-16 10:45:00,
2013-04-16 06:50:00,57.4,51.6,29.83,NE,44,0.0,0.0,81,0.00,,,0.00,VWS V14.00,2013-04-16 10:50:00,
2013-04-16 06:55:00,57.2,51.4,29.83,NE,35,0.0,0.0,81,0.00,,,0.00,VWS V14.00,2013-04-16 10:55:00,
2013-04-16 07:00:00,57.2,51.4,29.83,NE,38,0.0,0.0,81,0.00,,,0.00,VWS V14.00,2013-04-16 11:00:00,
2013-04-16 07:05:00,57.2,51.4,29.83,NE,38,0.0,0.0,81,0.00,,,0.00,VWS V14.00,2013-04-16 11:05:00,
2013-04-16 07:10:00,57.2,51.8,29.83,NE,38,0.0,0.0,82,0.00,,,0.00,VWS V14.00,2013-04-16 11:10:00,
2013-04-16 07:15:00,57.2,51.8,29.83,ENE,66,0.0,0.0,82,0.00,,,0.00,VWS V14.00,2013-04-16 11:15:00,
2013-04-16 07:20:00,57.2,51.8,29.83,ENE,65,0.0,0.0,82,0.00,,,0.00,VWS V14.00,2013-04-16 11:20:00,
2013-04-16 07:25:00,57.4,51.9,29.83,East,93,0.0,0.0,82,0.00,,,0.00,VWS V14.00,2013-04-16 11:25:00,
2013-04-16 07:30:00,57.4,51.9,29.83,ESE,121,0.0,0.0,82,0.00,,,0.00,VWS V14.00,2013-04-16 11:30:00,
2013-04-16 07:35:00,57.4,52.3,29.83,ENE,68,0.0,0.0,83,0.00,,,0.00,VWS V14.00,2013-04-16 11:35:00,
2013-04-16 07:40:00,57.4,52.3,29.85,ENE,68,0.0,0.0,83,0.00,,,0.00,VWS V14.00,2013-04-16 11:40:00,
2013-04-16 07:45:00,57.4,52.3,29.85,ENE,68,0.0,0.0,83,0.00,,,0.00,VWS V14.00,2013-04-16 11:45:00,
2013-04-16 07:50:00,57.6,52.4,29.85,ENE,68,0.0,0.0,83,0.00,,,0.00,VWS V14.00,2013-04-16 11:50:00,
2013-04-16 07:55:00,57.6,52.4,29.85,ENE,68,0.0,0.0,83,0.00,,,0.00,VWS V14.00,2013-04-16 11:55:00,
2013-04-16 08:00:00,57.6,52.4,29.85,ENE,68,0.0,0.0,83,0.00,,,0.00,VWS V14.00,2013-04-16 12:00:00,
2013-04-16 08:05:00,57.7,53.0,29.85,ENE,68,0.0,0.0,84,0.00,,,0.00,VWS V14.00,2013-04-16 12:05:00,
2013-04-16 08:10:00,57.9,53.1,29.85,ENE,68,0.0,0.0,84,0.00,,,0.00,VWS V14.00,2013-04-16 12:10:00,
2013-04-16 08:15:00,57.9,53.1,29.85,ENE,68,0.0,0.0,84,0.00,,,0.00,VWS V14.00,2013-04-16 12:15:00,
2013-04-16 08:20:00,58.1,53.3,29.85,ENE,68,0.0,0.0,84,0.00,,,0.00,VWS V14.00,2013-04-16 12:20:00,
2013-04-16 08:25:00,58.1,53.3,29.85,NE,52,0.0,0.0,84,0.00,,,0.00,VWS V14.00,2013-04-16 12:25:00,
2013-04-16 08:30:00,58.3,53.5,29.85,NE,52,0.0,0.0,84,0.00,,,0.00,VWS V14.00,2013-04-16 12:30:00,
2013-04-16 08:35:00,58.3,53.5,29.85,NE,52,0.0,0.0,84,0.00,,,0.00,VWS V14.00,2013-04-16 12:35:00,
2013-04-16 08:40:00,58.5,53.7,29.85,East,87,0.0,0.0,84,0.00,,,0.00,VWS V14.00,2013-04-16 12:40:00,
2013-04-16 08:45:00,58.5,53.7,29.85,East,87,0.0,0.0,84,0.00,,,0.00,VWS V14.00,2013-04-16 12:45:00,
2013-04-16 08:50:00,58.5,53.7,29.85,East,87,0.0,0.0,84,0.00,,,0.00,VWS V14.00,2013-04-16 12:50:00,
2013-04-16 08:55:00,58.5,54.0,29.85,East,98,0.0,0.0,85,0.00,,,0.00,VWS V14.00,2013-04-16 12:55:00,
2013-04-16 09:00:00,58.6,54.2,29.85,SW,222,0.0,0.0,85,0.00,,,0.00,VWS V14.00,2013-04-16 13:00:00,
2013-04-16 09:05:00,58.6,54.2,29.85,SW,222,0.0,0.0,85,0.00,,,0.00,VWS V14.00,2013-04-16 13:05:00,
2013-04-16 09:10:00,58.6,54.2,29.85,SW,222,0.0,0.0,85,0.00,,,0.00,VWS V14.00,2013-04-16 13:10:00,
2013-04-16 09:15:00,58.8,54.3,29.85,SW,222,0.0,0.0,85,0.00,,,0.00,VWS V14.00,2013-04-16 13:15:00,
2013-04-16 09:20:00,58.8,54.3,29.85,SE,127,0.0,0.0,85,0.00,,,0.00,VWS V14.00,2013-04-16 13:20:00,
2013-04-16 09:25:00,58.8,54.3,29.88,SE,127,0.0,0.0,85,0.00,,,0.00,VWS V14.00,2013-04-16 13:25:00,
2013-04-16 09:30:00,58.8,54.3,29.88,WSW,250,0.0,0.0,85,0.00,,,0.00,VWS V14.00,2013-04-16 13:30:00,
2013-04-16 09:35:00,59.2,54.7,29.88,WSW,250,0.0,0.0,85,0.00,,,0.00,VWS V14.00,2013-04-16 13:35:00,
2013-04-16 09:40:00,59.2,54.7,29.88,WSW,250,0.0,0.0,85,0.00,,,0.00,VWS V14.00,2013-04-16 13:40:00,
2013-04-16 09:45:00,59.2,54.7,29.88,WSW,250,0.0,0.0,85,0.00,,,0.00,VWS V14.00,2013-04-16 13:45:00,
2013-04-16 09:50:00,59.4,54.9,29.88,NW,313,0.0,0.0,85,0.00,,,0.00,VWS V14.00,2013-04-16 13:50:00,
2013-04-16 09:55:00,59.4,54.9,29.88,SW,236,2.7,2.7,85,0.00,,,0.00,VWS V14.00,2013-04-16 13:55:00,
2013-04-16 10:00:00,59.4,54.9,29.88,SW,236,0.0,0.0,85,0.00,,,0.00,VWS V14.00,2013-04-16 14:00:00,
2013-04-16 10:05:00,59.5,55.0,29.88,SW,236,0.0,0.0,85,0.00,,,0.00,VWS V14.00,2013-04-16 14:05:00,
2013-04-16 10:10:00,59.5,54.7,29.88,WSW,237,0.0,0.0,84,0.00,,,0.00,VWS V14.00,2013-04-16 14:10:00,
2013-04-16 10:15:00,59.5,54.7,29.88,NNW,335,0.0,0.0,84,0.00,,,0.00,VWS V14.00,2013-04-16 14:15:00,
2013-04-16 10:20:00,59.5,54.7,29.88,East,93,0.0,0.0,84,0.00,,,0.00,VWS V14.00,2013-04-16 14:20:00,
2013-04-16 10:25:00,59.7,54.9,29.88,NE,44,0.0,0.0,84,0.00,,,0.00,VWS V14.00,2013-04-16 14:25:00,
2013-04-16 10:30:00,59.7,54.6,29.88,NE,44,0.0,0.0,83,0.00,,,0.00,VWS V14.00,2013-04-16 14:30:00,
2013-04-16 10:35:00,59.9,54.7,29.88,NE,44,0.0,0.0,83,0.00,,,0.00,VWS V14.00,2013-04-16 14:35:00,
2013-04-16 10:40:00,60.1,54.9,29.88,NE,44,0.0,0.0,83,0.00,,,0.00,VWS V14.00,2013-04-16 14:40:00,
2013-04-16 10:45:00,60.1,54.6,29.88,NE,44,0.0,0.0,82,0.00,,,0.00,VWS V14.00,2013-04-16 14:45:00,
2013-04-16 10:50:00,60.4,54.9,29.88,SW,234,0.0,0.0,82,0.00,,,0.00,VWS V14.00,2013-04-16 14:50:00,
2013-04-16 10:55:00,60.1,51.8,29.88,SW,234,0.0,0.0,74,0.00,,,0.00,VWS V14.00,2013-04-16 14:55:00,
2013-04-16 11:00:00,60.4,50.6,29.88,West,278,0.0,0.0,70,0.00,,,0.00,VWS V14.00,2013-04-16 15:00:00,
2013-04-16 11:05:00,60.8,49.8,29.88,NE,46,0.0,0.0,67,0.00,,,0.00,VWS V14.00,2013-04-16 15:05:00,
2013-04-16 11:10:00,61.2,50.5,29.88,ENE,59,0.0,0.0,68,0.00,,,0.00,VWS V14.00,2013-04-16 15:10:00,
2013-04-16 11:15:00,61.7,51.0,29.88,ENE,59,0.0,0.0,68,0.00,,,0.00,VWS V14.00,2013-04-16 15:15:00,
2013-04-16 11:20:00,62.1,51.0,29.88,East,81,0.0,0.0,67,0.00,,,0.00,VWS V14.00,2013-04-16 15:20:00,
2013-04-16 11:25:00,62.4,50.9,29.88,ESE,119,0.0,0.0,66,0.00,,,0.00,VWS V14.00,2013-04-16 15:25:00,
2013-04-16 11:30:00,62.6,50.3,29.88,NNW,329,0.0,0.0,64,0.00,,,0.00,VWS V14.00,2013-04-16 15:30:00,
2013-04-16 11:35:00,62.8,49.2,29.88,NE,44,0.0,0.0,61,0.00,,,0.00,VWS V14.00,2013-04-16 15:35:00,
2013-04-16 11:40:00,63.0,48.9,29.88,NE,46,0.0,0.0,60,0.00,,,0.00,VWS V14.00,2013-04-16 15:40:00,
2013-04-16 11:45:00,63.3,48.3,29.88,NE,46,0.0,0.0,58,0.00,,,0.00,VWS V14.00,2013-04-16 15:45:00,
2013-04-16 11:50:00,63.7,47.7,29.88,East,79,2.2,2.2,56,0.00,,,0.00,VWS V14.00,2013-04-16 15:50:00,
2013-04-16 11:55:00,63.9,47.4,29.88,NE,38,2.2,2.2,55,0.00,,,0.00,VWS V14.00,2013-04-16 15:55:00,
2013-04-16 12:00:00,64.2,44.1,29.88,NW,318,2.7,3.1,48,0.00,,,0.00,VWS V14.00,2013-04-16 16:00:00,
2013-04-16 12:05:00,64.4,45.4,29.88,WSW,248,0.0,0.0,50,0.00,,,0.00,VWS V14.00,2013-04-16 16:05:00,
2013-04-16 12:10:00,64.8,45.7,29.88,NNW,345,0.0,0.0,50,0.00,,,0.00,VWS V14.00,2013-04-16 16:10:00,
2013-04-16 12:15:00,64.9,44.8,29.88,East,97,2.7,2.7,48,0.00,,,0.00,VWS V14.00,2013-04-16 16:15:00,
2013-04-16 12:20:00,65.1,45.0,29.88,SE,130,0.0,0.0,48,0.00,,,0.00,VWS V14.00,2013-04-16 16:20:00,
2013-04-16 12:25:00,65.1,44.4,29.88,NE,43,0.0,2.2,47,0.00,,,0.00,VWS V14.00,2013-04-16 16:25:00,
2013-04-16 12:30:00,65.1,43.3,29.88,NNW,337,0.0,0.0,45,0.00,,,0.00,VWS V14.00,2013-04-16 16:30:00,
2013-04-16 12:35:00,65.3,44.6,29.88,ENE,64,0.0,0.0,47,0.00,,,0.00,VWS V14.00,2013-04-16 16:35:00,
2013-04-16 12:40:00,65.7,44.3,29.88,East,86,0.0,0.0,46,0.00,,,0.00,VWS V14.00,2013-04-16 16:40:00,
2013-04-16 12:45:00,66.0,44.7,29.88,ESE,113,2.2,2.2,46,0.00,,,0.00,VWS V14.00,2013-04-16 16:45:00,
2013-04-16 12:50:00,66.4,43.8,29.88,ENE,75,4.9,4.9,44,0.00,,,0.00,VWS V14.00,2013-04-16 16:50:00,
2013-04-16 12:55:00,66.7,43.5,29.88,NE,34,3.1,3.1,43,0.00,,,0.00,VWS V14.00,2013-04-16 16:55:00,
2013-04-16 13:00:00,67.1,43.9,29.88,NNW,344,0.0,0.0,43,0.00,,,0.00,VWS V14.00,2013-04-16 17:00:00,
2013-04-16 13:05:00,67.6,44.4,29.88,NE,56,3.1,3.1,43,0.00,,,0.00,VWS V14.00,2013-04-16 17:05:00,
2013-04-16 13:10:00,68.4,45.0,29.88,East,94,2.7,2.7,43,0.00,,,0.00,VWS V14.00,2013-04-16 17:10:00,
2013-04-16 13:15:00,68.9,44.9,29.88,SSW,202,3.1,3.1,42,0.00,,,0.00,VWS V14.00,2013-04-16 17:15:00,
2013-04-16 13:20:00,69.4,43.4,29.88,SE,130,2.7,2.7,39,0.00,,,0.00,VWS V14.00,2013-04-16 17:20:00,
2013-04-16 13:25:00,69.8,43.8,29.88,ESE,105,3.1,3.1,39,0.00,,,0.00,VWS V14.00,2013-04-16 17:25:00,
2013-04-16 13:30:00,70.2,43.4,29.88,East,99,2.7,5.8,38,0.00,,,0.00,VWS V14.00,2013-04-16 17:30:00,
2013-04-16 13:35:00,70.5,43.0,29.88,East,99,3.1,3.1,37,0.00,,,0.00,VWS V14.00,2013-04-16 17:35:00,
2013-04-16 13:40:00,70.7,42.5,29.88,East,94,3.1,3.1,36,0.00,,,0.00,VWS V14.00,2013-04-16 17:40:00,
2013-04-16 13:45:00,70.7,41.7,29.88,West,274,3.1,4.0,35,0.00,,,0.00,VWS V14.00,2013-04-16 17:45:00,
2013-04-16 13:50:00,70.7,43.2,29.88,ENE,77,3.1,4.9,37,0.00,,,0.00,VWS V14.00,2013-04-16 17:50:00,
2013-04-16 13:55:00,70.9,42.6,29.85,East,84,4.0,5.4,36,0.00,,,0.00,VWS V14.00,2013-04-16 17:55:00,
2013-04-16 14:00:00,71.1,42.8,29.85,SW,218,0.0,0.0,36,0.00,,,0.00,VWS V14.00,2013-04-16 18:00:00,
2013-04-16 14:05:00,71.1,42.8,29.85,East,91,2.7,3.1,36,0.00,,,0.00,VWS V14.00,2013-04-16 18:05:00,
2013-04-16 14:10:00,71.2,42.2,29.85,NNE,27,3.6,3.6,35,0.00,,,0.00,VWS V14.00,2013-04-16 18:10:00,
2013-04-16 14:15:00,71.4,42.4,29.85,NNW,338,2.2,2.7,35,0.00,,,0.00,VWS V14.00,2013-04-16 18:15:00,
2013-04-16 14:20:00,71.6,43.3,29.85,NE,49,4.0,4.0,36,0.00,,,0.00,VWS V14.00,2013-04-16 18:20:00,
2013-04-16 14:25:00,71.8,41.9,29.85,East,92,3.6,3.6,34,0.00,,,0.00,VWS V14.00,2013-04-16 18:25:00,
2013-04-16 14:30:00,72.0,42.1,29.85,SW,231,3.1,3.1,34,0.00,,,0.00,VWS V14.00,2013-04-16 18:30:00,
2013-04-16 14:35:00,71.8,41.9,29.85,ENE,61,2.2,3.1,34,0.00,,,0.00,VWS V14.00,2013-04-16 18:35:00,
2013-04-16 14:40:00,72.5,42.6,29.85,WNW,302,0.0,0.0,34,0.00,,,0.00,VWS V14.00,2013-04-16 18:40:00,
2013-04-16 14:45:00,72.7,42.0,29.85,WSW,252,0.0,0.0,33,0.00,,,0.00,VWS V14.00,2013-04-16 18:45:00,
2013-04-16 14:50:00,72.3,42.4,29.85,WSW,258,0.0,0.0,34,0.00,,,0.00,VWS V14.00,2013-04-16 18:50:00,
2013-04-16 14:55:00,72.0,42.1,29.85,WNW,300,2.7,2.7,34,0.00,,,0.00,VWS V14.00,2013-04-16 18:55:00,
2013-04-16 15:00:00,71.8,41.9,29.85,WNW,302,2.2,2.2,34,0.00,,,0.00,VWS V14.00,2013-04-16 19:00:00,
2013-04-16 15:05:00,72.3,43.2,29.85,ENE,76,4.0,4.0,35,0.00,,,0.00,VWS V14.00,2013-04-16 19:05:00,
2013-04-16 15:10:00,73.0,43.0,29.83,WSW,257,3.6,3.6,34,0.00,,,0.00,VWS V14.00,2013-04-16 19:10:00,
2013-04-16 15:15:00,74.1,43.2,29.83,ENE,58,3.1,3.1,33,0.00,,,0.00,VWS V14.00,2013-04-16 19:15:00,
2013-04-16 15:20:00,75.4,43.5,29.83,NNW,328,0.0,0.0,32,0.00,,,0.00,VWS V14.00,2013-04-16 19:20:00,
2013-04-16 15:25:00,76.5,44.4,29.83,SSW,195,0.0,0.0,32,0.00,,,0.00,VWS V14.00,2013-04-16 19:25:00,
2013-04-16 15:30:00,77.4,44.4,29.83,WNW,298,2.7,2.7,31,0.00,,,0.00,VWS V14.00,2013-04-16 19:30:00,
2013-04-16 15:35:00,77.2,44.2,29.83,West,259,3.1,3.1,31,0.00,,,0.00,VWS V14.00,2013-04-16 19:35:00,
2013-04-16 15:40:00,77.0,44.1,29.83,West,275,2.2,2.7,31,0.00,,,0.00,VWS V14.00,2013-04-16 19:40:00,
2013-04-16 15:45:00,76.6,44.6,29.83,South,184,2.2,2.2,32,0.00,,,0.00,VWS V14.00,2013-04-16 19:45:00,
2013-04-16 15:50:00,77.0,44.1,29.83,South,186,3.6,3.6,31,0.00,,,0.00,VWS V14.00,2013-04-16 19:50:00,
2013-04-16 15:55:00,77.5,44.5,29.80,ENE,65,3.1,3.6,31,0.00,,,0.00,VWS V14.00,2013-04-16 19:55:00,
2013-04-16 16:00:00,78.3,45.2,29.80,NE,42,2.7,2.7,31,0.00,,,0.00,VWS V14.00,2013-04-16 20:00:00,
2013-04-16 16:05:00,79.0,45.8,29.80,North,0,0.0,0.0,31,0.00,,,0.00,VWS V14.00,2013-04-16 20:05:00,
2013-04-16 16:10:00,78.6,45.5,29.80,ESE,111,2.7,2.7,31,0.00,,,0.00,VWS V14.00,2013-04-16 20:10:00,
2013-04-16 16:15:00,78.4,45.3,29.80,NNW,348,2.7,2.7,31,0.00,,,0.00,VWS V14.00,2013-04-16 20:15:00,
2013-04-16 16:20:00,79.0,45.8,29.80,ENE,63,0.0,2.7,31,0.00,,,0.00,VWS V14.00,2013-04-16 20:20:00,
2013-04-16 16:25:00,78.6,45.5,29.80,ESE,116,3.1,3.1,31,0.00,,,0.00,VWS V14.00,2013-04-16 20:25:00,
2013-04-16 16:30:00,78.1,45.0,29.80,ESE,105,3.1,3.1,31,0.00,,,0.00,VWS V14.00,2013-04-16 20:30:00,
2013-04-16 16:35:00,78.1,45.0,29.80,East,93,0.0,3.1,31,0.00,,,0.00,VWS V14.00,2013-04-16 20:35:00,
2013-04-16 16:40:00,78.8,45.6,29.80,ESE,104,5.4,5.4,31,0.00,,,0.00,VWS V14.00,2013-04-16 20:40:00,
2013-04-16 16:45:00,79.7,46.4,29.80,East,87,2.7,4.0,31,0.00,,,0.00,VWS V14.00,2013-04-16 20:45:00,
2013-04-16 16:50:00,80.6,46.3,29.80,SSW,200,0.0,0.0,30,0.00,,,0.00,VWS V14.00,2013-04-16 20:50:00,
2013-04-16 16:55:00,80.8,46.5,29.80,ESE,118,2.2,2.2,30,0.00,,,0.00,VWS V14.00,2013-04-16 20:55:00,
2013-04-16 17:00:00,80.2,46.0,29.80,SSE,167,6.3,6.3,30,0.00,,,0.00,VWS V14.00,2013-04-16 21:00:00,
2013-04-16 17:05:00,79.9,45.7,29.80,WSW,252,2.7,2.7,30,0.00,,,0.00,VWS V14.00,2013-04-16 21:05:00,
2013-04-16 17:10:00,79.7,45.6,29.80,NE,54,3.6,3.6,30,0.00,,,0.00,VWS V14.00,2013-04-16 21:10:00,
2013-04-16 17:15:00,79.3,45.2,29.80,ENE,73,0.0,0.0,30,0.00,,,0.00,VWS V14.00,2013-04-16 21:15:00,
2013-04-16 17:20:00,79.2,45.1,29.80,East,101,0.0,0.0,30,0.00,,,0.00,VWS V14.00,2013-04-16 21:20:00,
2013-04-16 17:25:00,79.2,45.1,29.80,ESE,113,3.6,3.6,30,0.00,,,0.00,VWS V14.00,2013-04-16 21:25:00,
2013-04-16 17:30:00,79.3,46.1,29.80,East,96,2.7,2.7,31,0.00,,,0.00,VWS V14.00,2013-04-16 21:30:00,
2013-04-16 17:35:00,79.5,45.4,29.80,East,99,4.0,4.0,30,0.00,,,0.00,VWS V14.00,2013-04-16 21:35:00,
2013-04-16 17:40:00,79.7,45.6,29.80,ESE,103,4.0,4.0,30,0.00,,,0.00,VWS V14.00,2013-04-16 21:40:00,
2013-04-16 17:45:00,79.3,45.2,29.80,ENE,70,4.0,4.0,30,0.00,,,0.00,VWS V14.00,2013-04-16 21:45:00,
2013-04-16 17:50:00,78.6,45.5,29.80,East,101,0.0,0.0,31,0.00,,,0.00,VWS V14.00,2013-04-16 21:50:00,
2013-04-16 17:55:00,78.1,45.0,29.80,North,353,2.7,2.7,31,0.00,,,0.00,VWS V14.00,2013-04-16 21:55:00,
2013-04-16 18:00:00,77.5,44.5,29.80,ESE,105,3.1,3.1,31,0.00,,,0.00,VWS V14.00,2013-04-16 22:00:00,
2013-04-16 18:05:00,77.0,44.1,29.80,SW,222,0.0,0.0,31,0.00,,,0.00,VWS V14.00,2013-04-16 22:05:00,
2013-04-16 18:10:00,76.6,43.8,29.80,East,97,0.0,0.0,31,0.00,,,0.00,VWS V14.00,2013-04-16 22:10:00,
2013-04-16 18:15:00,75.7,43.0,29.80,WSW,248,0.0,0.0,31,0.00,,,0.00,VWS V14.00,2013-04-16 22:15:00,
2013-04-16 18:20:00,75.6,42.8,29.80,SSW,208,0.0,3.1,31,0.00,,,0.00,VWS V14.00,2013-04-16 22:20:00,
2013-04-16 18:25:00,75.6,42.8,29.80,SW,215,2.2,2.2,31,0.00,,,0.00,VWS V14.00,2013-04-16 22:25:00,
2013-04-16 18:30:00,75.4,42.7,29.80,East,92,0.0,0.0,31,0.00,,,0.00,VWS V14.00,2013-04-16 22:30:00,
2013-04-16 18:35:00,75.4,42.7,29.80,East,97,3.1,3.1,31,0.00,,,0.00,VWS V14.00,2013-04-16 22:35:00,
2013-04-16 18:40:00,75.2,42.5,29.80,SW,218,2.7,2.7,31,0.00,,,0.00,VWS V14.00,2013-04-16 22:40:00,
2013-04-16 18:45:00,74.8,43.0,29.80,East,85,0.0,2.7,32,0.00,,,0.00,VWS V14.00,2013-04-16 22:45:00,
2013-04-16 18:50:00,74.3,42.6,29.80,East,85,0.0,0.0,32,0.00,,,0.00,VWS V14.00,2013-04-16 22:50:00,
2013-04-16 18:55:00,73.9,42.2,29.80,East,83,2.7,2.7,32,0.00,,,0.00,VWS V14.00,2013-04-16 22:55:00,
2013-04-16 19:00:00,73.6,41.9,29.80,ENE,62,0.0,0.0,32,0.00,,,0.00,VWS V14.00,2013-04-16 23:00:00,
2013-04-16 19:05:00,73.2,42.4,29.80,ENE,62,0.0,0.0,33,0.00,,,0.00,VWS V14.00,2013-04-16 23:05:00,
2013-04-16 19:10:00,73.0,42.3,29.80,ENE,62,0.0,0.0,33,0.00,,,0.00,VWS V14.00,2013-04-16 23:10:00,
2013-04-16 19:15:00,72.7,42.0,29.80,ENE,62,0.0,0.0,33,0.00,,,0.00,VWS V14.00,2013-04-16 23:15:00,
2013-04-16 19:20:00,72.5,41.8,29.80,ENE,62,0.0,0.0,33,0.00,,,0.00,VWS V14.00,2013-04-16 23:20:00,
2013-04-16 19:25:00,72.0,41.3,29.80,ENE,62,0.0,0.0,33,0.00,,,0.00,VWS V14.00,2013-04-16 23:25:00,
2013-04-16 19:30:00,71.4,41.6,29.80,ENE,62,0.0,0.0,34,0.00,,,0.00,VWS V14.00,2013-04-16 23:30:00,
2013-04-16 19:35:00,71.1,41.3,29.80,ENE,62,0.0,0.0,34,0.00,,,0.00,VWS V14.00,2013-04-16 23:35:00,
2013-04-16 19:40:00,70.9,41.1,29.80,ENE,62,0.0,0.0,34,0.00,,,0.00,VWS V14.00,2013-04-16 23:40:00,
2013-04-16 19:45:00,70.2,40.5,29.80,ENE,62,0.0,0.0,34,0.00,,,0.00,VWS V14.00,2013-04-16 23:45:00,
2013-04-16 19:50:00,69.6,40.8,29.80,ENE,62,0.0,0.0,35,0.00,,,0.00,VWS V14.00,2013-04-16 23:50:00,
2013-04-16 19:55:00,69.4,40.6,29.80,ENE,62,0.0,0.0,35,0.00,,,0.00,VWS V14.00,2013-04-16 23:55:00,
2013-04-16 20:00:00,68.7,40.7,29.80,ENE,62,0.0,0.0,36,0.00,,,0.00,VWS V14.00,2013-04-17 00:00:00,
2013-04-16 20:05:00,68.2,40.2,29.80,ENE,62,0.0,0.0,36,0.00,,,0.00,VWS V14.00,2013-04-17 00:05:00,
2013-04-16 20:10:00,67.5,40.3,29.80,ENE,62,0.0,0.0,37,0.00,,,0.00,VWS V14.00,2013-04-17 00:10:00,
2013-04-16 20:15:00,67.1,40.7,29.80,ENE,62,0.0,0.0,38,0.00,,,0.00,VWS V14.00,2013-04-17 00:15:00,
2013-04-16 20:20:00,66.7,41.0,29.80,ENE,62,0.0,0.0,39,0.00,,,0.00,VWS V14.00,2013-04-17 00:20:00,
2013-04-16 20:25:00,66.2,40.5,29.80,ENE,62,0.0,0.0,39,0.00,,,0.00,VWS V14.00,2013-04-17 00:25:00,
2013-04-16 20:30:00,65.7,41.3,29.80,ENE,62,0.0,0.0,41,0.00,,,0.00,VWS V14.00,2013-04-17 00:30:00,
2013-04-16 20:35:00,65.3,41.0,29.80,ENE,62,0.0,0.0,41,0.00,,,0.00,VWS V14.00,2013-04-17 00:35:00,
2013-04-16 20:40:00,64.8,41.2,29.80,ENE,62,0.0,0.0,42,0.00,,,0.00,VWS V14.00,2013-04-17 00:40:00,
2013-04-16 20:45:00,64.4,41.4,29.80,ENE,62,0.0,0.0,43,0.00,,,0.00,VWS V14.00,2013-04-17 00:45:00,
2013-04-16 20:50:00,63.9,41.5,29.80,ENE,62,0.0,0.0,44,0.00,,,0.00,VWS V14.00,2013-04-17 00:50:00,
2013-04-16 20:55:00,63.5,41.2,29.80,ENE,62,0.0,0.0,44,0.00,,,0.00,VWS V14.00,2013-04-17 00:55:00,
2013-04-16 21:00:00,63.3,41.1,29.80,ENE,62,0.0,0.0,44,0.00,,,0.00,VWS V14.00,2013-04-17 01:00:00,
2013-04-16 21:05:00,62.8,41.2,29.80,ENE,62,0.0,0.0,45,0.00,,,0.00,VWS V14.00,2013-04-17 01:05:00,
2013-04-16 21:10:00,62.6,41.0,29.80,ENE,62,0.0,0.0,45,0.00,,,0.00,VWS V14.00,2013-04-17 01:10:00,
2013-04-16 21:15:00,62.1,41.1,29.80,ENE,62,0.0,0.0,46,0.00,,,0.00,VWS V14.00,2013-04-17 01:15:00,
2013-04-16 21:20:00,61.7,40.7,29.80,ENE,62,0.0,0.0,46,0.00,,,0.00,VWS V14.00,2013-04-17 01:20:00,
2013-04-16 21:25:00,61.3,41.0,29.80,ENE,62,0.0,0.0,47,0.00,,,0.00,VWS V14.00,2013-04-17 01:25:00,
2013-04-16 21:30:00,61.0,40.6,29.80,ENE,62,0.0,0.0,47,0.00,,,0.00,VWS V14.00,2013-04-17 01:30:00,
2013-04-16 21:35:00,60.8,41.0,29.80,ENE,62,0.0,0.0,48,0.00,,,0.00,VWS V14.00,2013-04-17 01:35:00,
2013-04-16 21:40:00,60.4,41.2,29.80,ENE,62,0.0,0.0,49,0.00,,,0.00,VWS V14.00,2013-04-17 01:40:00,
2013-04-16 21:45:00,60.3,41.6,29.80,ENE,62,0.0,0.0,50,0.00,,,0.00,VWS V14.00,2013-04-17 01:45:00,
2013-04-16 21:50:00,60.3,41.6,29.80,ENE,62,0.0,0.0,50,0.00,,,0.00,VWS V14.00,2013-04-17 01:50:00,
2013-04-16 21:55:00,60.1,41.9,29.80,ENE,62,0.0,0.0,51,0.00,,,0.00,VWS V14.00,2013-04-17 01:55:00,
2013-04-16 22:00:00,60.1,41.9,29.80,ENE,62,0.0,0.0,51,0.00,,,0.00,VWS V14.00,2013-04-17 02:00:00,
2013-04-16 22:05:00,59.9,42.2,29.80,ENE,62,0.0,0.0,52,0.00,,,0.00,VWS V14.00,2013-04-17 02:05:00,
2013-04-16 22:10:00,59.5,41.9,29.80,ENE,62,0.0,0.0,52,0.00,,,0.00,VWS V14.00,2013-04-17 02:10:00,
2013-04-16 22:15:00,59.4,41.8,29.80,ENE,62,0.0,0.0,52,0.00,,,0.00,VWS V14.00,2013-04-17 02:15:00,
2013-04-16 22:20:00,59.2,41.6,29.80,ENE,62,0.0,0.0,52,0.00,,,0.00,VWS V14.00,2013-04-17 02:20:00,
2013-04-16 22:25:00,59.0,41.4,29.80,ENE,62,0.0,0.0,52,0.00,,,0.00,VWS V14.00,2013-04-17 02:25:00,
2013-04-16 22:30:00,58.8,41.7,29.80,ENE,62,0.0,0.0,53,0.00,,,0.00,VWS V14.00,2013-04-17 02:30:00,
2013-04-16 22:35:00,58.6,42.1,29.80,ENE,62,0.0,0.0,54,0.00,,,0.00,VWS V14.00,2013-04-17 02:35:00,
2013-04-16 22:40:00,58.5,42.4,29.80,ENE,62,0.0,0.0,55,0.00,,,0.00,VWS V14.00,2013-04-17 02:40:00,
2013-04-16 22:45:00,58.5,42.4,29.80,ENE,62,0.0,0.0,55,0.00,,,0.00,VWS V14.00,2013-04-17 02:45:00,
2013-04-16 22:50:00,58.5,42.8,29.80,ENE,62,0.0,0.0,56,0.00,,,0.00,VWS V14.00,2013-04-17 02:50:00,
2013-04-16 22:55:00,58.3,43.1,29.80,ENE,62,0.0,0.0,57,0.00,,,0.00,VWS V14.00,2013-04-17 02:55:00,
2013-04-16 23:00:00,58.1,42.5,29.80,ENE,62,0.0,0.0,56,0.00,,,0.00,VWS V14.00,2013-04-17 03:00:00,
2013-04-16 23:05:00,57.9,42.3,29.80,ENE,62,0.0,0.0,56,0.00,,,0.00,VWS V14.00,2013-04-17 03:05:00,
2013-04-16 23:10:00,57.6,42.0,29.80,ENE,62,0.0,0.0,56,0.00,,,0.00,VWS V14.00,2013-04-17 03:10:00,
2013-04-16 23:15:00,57.6,42.5,29.80,ENE,62,0.0,0.0,57,0.00,,,0.00,VWS V14.00,2013-04-17 03:15:00,
2013-04-16 23:20:00,57.6,42.9,29.80,ENE,62,0.0,0.0,58,0.00,,,0.00,VWS V14.00,2013-04-17 03:20:00,
2013-04-16 23:25:00,57.6,43.4,29.80,ENE,62,0.0,0.0,59,0.00,,,0.00,VWS V14.00,2013-04-17 03:25:00,
2013-04-16 23:30:00,57.7,44.8,29.80,ENE,62,0.0,0.0,62,0.00,,,0.00,VWS V14.00,2013-04-17 03:30:00,
2013-04-16 23:35:00,57.9,45.8,29.80,ENE,62,0.0,0.0,64,0.00,,,0.00,VWS V14.00,2013-04-17 03:35:00,
2013-04-16 23:40:00,57.7,44.8,29.80,ENE,62,0.0,0.0,62,0.00,,,0.00,VWS V14.00,2013-04-17 03:40:00,
2013-04-16 23:45:00,57.6,43.8,29.80,ENE,62,0.0,0.0,60,0.00,,,0.00,VWS V14.00,2013-04-17 03:45:00,
2013-04-16 23:50:00,57.4,43.6,29.80,ENE,62,0.0,0.0,60,0.00,,,0.00,VWS V14.00,2013-04-17 03:50:00,
2013-04-16 23:55:00,57.4,43.6,29.80,ENE,62,0.0,0.0,60,0.00,,,0.00,VWS V14.00,2013-04-17 03:55:00,